Time;durP1;ratioP1;P1;durP2;ratioP2;P2;SDS_P1;SDS_P2;PMS_P1;PMS_P2;Temp;Humidity;BMP_temperature;BMP_pressure;BME280_temperature;BME280_humidity;BME280_pressure;Samples;Min_cycle;Max_cycle;Signal;HPM_P1;HPM_P2
2023/01/24 09:59:57;;;;;;;13.90;10.60;;;;;;;-0.51;80.25;102194.74;104144;1285;604564;-71
2023/01/24 10:02:27;;;;;;;13.80;10.40;;;;;;;0.02;78.41;102190.04;104801;1271;135186;-73
2023/01/24 10:04:55;;;;;;;16.40;10.40;;;;;;;-0.02;78.26;102188.48;106185;1256;59272;-72
2023/01/24 10:07:34;;;;;;;14.10;10.10;;;;;;;-0.02;78.14;102185.89;105962;1258;64805;-78
2023/01/24 10:10:41;;;;;;;17.60;10.70;;;;;;;-0.02;77.91;102183.98;105738;1258;59684;-72
2023/01/24 10:13:23;;;;;;;13.50;9.50;;;;;;;-0.04;77.73;102181.40;105764;1254;65390;-74
2023/01/24 10:15:53;;;;;;;;;;;;;;;-0.04;77.64;102181.75;106094;1258;59330;-72
2023/01/24 10:18:34;;;;;;;13.00;9.60;;;;;;;-0.04;77.54;102177.77;105839;1259;59400;-71
2023/01/24 10:21:24;;;;;;;14.30;10.00;;;;;;;-0.06;77.44;102173.80;106183;1258;65298;-74
2023/01/24 10:23:55;;;;;;;15.20;10.10;;;;;;;-0.05;77.31;102168.44;105756;1257;59493;-73
2023/01/24 10:26:30;;;;;;;15.00;10.00;;;;;;;-0.03;77.22;102169.96;105842;1258;65552;-74
2023/01/24 10:29:06;;;;;;;14.60;9.70;;;;;;;-0.00;77.19;102167.89;105677;1255;59656;-75
2023/01/24 10:31:42;;;;;;;13.40;10.00;;;;;;;0.02;77.11;102165.28;105834;1259;59611;-71
2023/01/24 10:34:40;;;;;;;15.00;10.30;;;;;;;0.04;77.02;102161.98;106060;1260;65788;-72
2023/01/24 10:37:13;;;;;;;15.60;10.50;;;;;;;0.05;76.86;102157.63;105884;1260;59500;-72
2023/01/24 10:39:42;;;;;;;14.90;10.90;;;;;;;0.07;76.76;102155.70;105819;1256;66168;-72
2023/01/24 10:42:24;;;;;;;15.60;11.50;;;;;;;0.09;76.73;102156.89;106274;1257;59714;-70
2023/01/24 10:44:54;;;;;;;14.90;11.10;;;;;;;0.10;76.68;102152.05;106229;1253;59512;-72
2023/01/24 10:47:59;;;;;;;19.10;12.30;;;;;;;0.12;76.61;102150.13;105723;1259;64685;-74
2023/01/24 10:50:35;;;;;;;19.10;12.10;;;;;;;0.14;76.57;102150.27;106020;1259;59814;-73
2023/01/24 10:53:14;;;;;;;16.40;12.70;;;;;;;0.16;76.48;102147.49;105791;1263;64586;-71
2023/01/24 10:56:04;;;;;;;17.50;11.80;;;;;;;0.16;76.39;102144.36;105740;1259;59936;-73
2023/01/24 10:58:40;;;;;;;20.90;12.30;;;;;;;0.16;76.38;102147.31;109201;1258;57307;-73
2023/01/24 11:01:22;;;;;;;15.60;11.90;;;;;;;0.16;76.27;102147.48;109080;1254;64250;-69
2023/01/24 11:03:58;;;;;;;20.70;12.40;;;;;;;0.17;76.24;102144.17;109163;1255;58550;-69
2023/01/24 11:06:37;;;;;;;18.10;12.40;;;;;;;0.20;76.14;102140.36;109233;1258;64526;-71
2023/01/24 11:09:10;;;;;;;15.90;11.70;;;;;;;0.22;76.13;102139.31;109190;1257;58485;-70
2023/01/24 11:11:40;;;;;;;;;;;;;;;0.22;75.98;102136.36;109132;1254;57699;-71
2023/01/24 11:14:10;;;;;;;18.70;11.60;;;;;;;0.21;75.86;102133.60;109153;1254;64142;-71
2023/01/24 11:16:45;;;;;;;16.10;12.10;;;;;;;0.21;75.77;102131.19;109121;1256;58344;-70
2023/01/24 11:19:32;;;;;;;13.90;10.30;;;;;;;0.22;75.73;102133.25;109138;1255;64694;-72
2023/01/24 11:22:22;;;;;;;15.00;11.50;;;;;;;0.23;75.65;102129.94;109168;1256;57669;-71
2023/01/24 11:24:51;;;;;;;15.30;10.70;;;;;;;0.25;75.55;102123.50;109263;1258;57540;-72
2023/01/24 11:27:23;;;;;;;15.70;11.40;;;;;;;0.28;75.40;102125.39;109039;1257;64236;-71
2023/01/24 11:30:17;;;;;;;13.90;11.20;;;;;;;0.30;75.34;102122.43;109219;1255;58584;-72
2023/01/24 11:32:49;;;;;;;;;;;;;;;0.32;75.32;102116.70;109164;1254;63984;-72
2023/01/24 11:35:26;;;;;;;16.80;10.30;;;;;;;0.33;75.25;102119.29;109253;1254;58237;-71
2023/01/24 11:38:14;;;;;;;17.30;10.50;;;;;;;0.33;75.20;102118.94;109163;1256;57576;-71
2023/01/24 11:40:56;;;;;;;13.90;10.60;;;;;;;0.34;75.19;102116.50;109185;1257;65268;-69
2023/01/24 11:43:50;;;;;;;14.80;10.90;;;;;;;0.36;75.17;102119.77;109178;1254;57443;-74
2023/01/24 11:46:38;;;;;;;16.20;11.30;;;;;;;0.35;75.12;102120.81;109123;1256;63778;-72
2023/01/24 11:49:33;;;;;;;14.70;11.00;;;;;;;0.35;75.02;102123.23;109098;1256;57333;-70
2023/01/24 11:52:14;;;;;;;23.70;18.60;;;;;;;0.37;74.98;102121.30;109276;1257;57220;-71
2023/01/24 11:54:57;;;;;;;16.20;12.10;;;;;;;0.38;74.94;102123.90;109104;1258;65297;-70
2023/01/24 11:57:48;;;;;;;14.30;11.10;;;;;;;0.36;74.90;102122.19;109197;1261;58234;-69
2023/01/24 12:00:31;;;;;;;15.20;10.90;;;;;;;0.35;74.87;102114.41;109254;1256;64027;-68
2023/01/24 14:13:49;;;;;;;18.80;13.80;;;;;;;-0.38;79.26;102107.28;103345;1280;605164;-67
2023/01/24 14:16:24;;;;;;;16.50;12.50;;;;;;;0.15;77.62;102114.24;104627;1264;268187;-68
2023/01/24 14:19:03;;;;;;;20.50;13.20;;;;;;;0.12;77.43;102114.97;105611;1257;59400;-68
2023/01/24 14:21:49;;;;;;;16.50;12.30;;;;;;;0.11;77.34;102116.53;105504;1258;65111;-68
2023/01/24 14:24:20;;;;;;;18.70;11.90;;;;;;;0.10;77.16;102118.63;107587;1257;59998;-67
2023/01/24 14:26:52;;;;;;;18.10;12.80;;;;;;;0.10;76.95;102120.88;105497;1258;65228;-66
2023/01/24 14:29:33;;;;;;;18.00;12.10;;;;;;;0.09;76.92;102120.17;105606;1260;59461;-67
2023/01/24 14:32:04;;;;;;;19.50;12.00;;;;;;;0.07;76.74;102121.92;105586;1257;59359;-66
2023/01/24 14:34:40;;;;;;;16.40;11.50;;;;;;;0.05;76.70;102121.94;105218;1263;65094;-67
2023/01/24 14:37:10;;;;;;;17.60;12.60;;;;;;;0.03;76.75;102123.35;105305;1263;59217;-66
2023/01/24 14:39:38;;;;;;;18.30;12.30;;;;;;;0.02;76.75;102123.89;105378;1257;65531;-67
2023/01/24 14:42:11;;;;;;;16.50;11.60;;;;;;;0.01;76.60;102124.06;105540;1257;59652;-66
2023/01/24 14:44:49;;;;;;;18.10;11.70;;;;;;;-0.04;76.57;102125.30;105472;1257;59641;-67
2023/01/24 14:47:25;;;;;;;19.60;12.10;;;;;;;-0.07;76.55;102125.34;105295;1259;66033;-66
2023/01/24 14:49:58;;;;;;;16.60;12.40;;;;;;;-0.07;76.58;102121.70;105245;1258;59867;-66
2023/01/24 14:52:30;;;;;;;18.30;12.10;;;;;;;-0.08;76.55;102122.23;105415;1257;64413;-66
2023/01/24 14:55:00;;;;;;;19.60;12.30;;;;;;;-0.08;76.65;102124.48;105556;1257;59634;-66
2023/01/24 14:57:30;;;;;;;15.60;11.50;;;;;;;-0.10;76.60;102120.83;105450;1257;59705;-67
2023/01/24 14:59:58;;;;;;;15.30;11.70;;;;;;;-0.11;76.65;102119.63;105435;1263;66123;-69
2023/01/24 15:02:26;;;;;;;20.80;12.00;;;;;;;-0.11;76.56;102121.53;105267;1261;60017;-68
2023/01/24 15:04:55;;;;;;;14.50;11.80;;;;;;;-0.12;76.55;102119.99;105330;1260;64348;-69
2023/01/24 15:07:23;;;;;;;17.00;11.70;;;;;;;-0.14;76.62;102116.55;105193;1261;62038;-69
2023/01/24 15:09:51;;;;;;;20.20;12.30;;;;;;;-0.14;76.61;102113.61;105423;1258;59661;-69
2023/01/24 15:12:29;;;;;;;16.40;12.30;;;;;;;-0.15;76.64;102114.48;105260;1257;65659;-69
2023/01/24 15:14:59;;;;;;;20.80;14.10;;;;;;;-0.17;76.64;102116.41;105184;1263;60027;-69
2023/01/24 15:17:28;;;;;;;25.80;16.40;;;;;;;-0.18;76.59;102116.42;105869;1258;64328;-67
2023/01/24 15:20:10;;;;;;;27.40;17.40;;;;;;;-0.20;76.53;102116.59;105291;1263;59547;-67
2023/01/24 15:22:39;;;;;;;33.60;20.50;;;;;;;-0.19;76.61;102116.24;105276;1257;59753;-68
2023/01/24 15:25:18;;;;;;;32.40;20.80;;;;;;;-0.19;76.73;102115.02;105794;1257;65736;-68
2023/01/24 15:27:46;;;;;;;33.00;21.00;;;;;;;-0.19;76.65;102112.27;105697;1256;59902;-67
2023/01/24 15:30:22;;;;;;;29.80;20.40;;;;;;;-0.18;76.59;102110.52;105706;1255;65508;-67
2023/01/24 15:32:57;;;;;;;32.90;22.20;;;;;;;-0.18;76.61;102113.48;106203;1254;59663;-66
2023/01/24 15:35:25;;;;;;;31.40;21.90;;;;;;;-0.18;76.62;102114.34;106484;1254;59849;-68
2023/01/24 15:38:05;;;;;;;33.70;24.40;;;;;;;-0.19;76.62;102113.13;105989;1254;64758;-66
2023/01/24 15:40:37;;;;;;;31.80;22.10;;;;;;;-0.21;76.65;102118.83;105582;1256;59960;-69
2023/01/24 15:49:21;;;;;;;32.30;23.30;;;;;;;-0.20;76.73;102122.83;105548;1254;59717;-68
2023/01/24 15:52:06;;;;;;;31.40;22.80;;;;;;;-0.20;76.69;102123.52;105686;1262;65627;-66
2023/01/24 15:54:36;;;;;;;32.30;22.50;;;;;;;-0.21;76.56;102122.99;105849;1257;60159;-66
2023/01/24 15:57:33;;;;;;;30.30;22.90;;;;;;;-0.21;76.70;102124.38;106116;1254;63954;-64
2023/01/24 16:00:07;;;;;;;28.80;21.00;;;;;;;-0.20;76.80;102122.98;105497;1257;59608;-64
2023/01/24 16:02:39;;;;;;;27.20;19.50;;;;;;;-0.20;76.75;102123.52;105726;1257;59672;-65
2023/01/24 16:05:14;;;;;;;26.50;17.90;;;;;;;-0.20;76.70;102124.54;105715;1255;66041;-67
2023/01/24 16:07:50;;;;;;;21.70;16.40;;;;;;;-0.20;76.75;102123.33;105484;1254;59803;-67
2023/01/24 16:10:21;;;;;;;23.30;16.00;;;;;;;-0.19;76.78;102119.88;105736;1253;65483;-67
2023/01/24 16:12:51;;;;;;;23.00;15.80;;;;;;;-0.19;76.70;102122.13;105609;1257;59627;-68
2023/01/24 16:15:20;;;;;;;22.00;14.80;;;;;;;-0.20;76.77;102122.12;105687;1253;59679;-67
2023/01/24 16:17:49;;;;;;;23.60;14.80;;;;;;;-0.20;76.77;102119.88;105491;1257;66447;-67
2023/01/24 16:20:22;;;;;;;23.90;15.20;;;;;;;-0.20;76.73;102120.39;105644;1257;59890;-67
2023/01/24 16:22:50;;;;;;;22.70;15.10;;;;;;;-0.21;76.81;102116.07;105656;1256;65979;-70
2023/01/24 16:25:20;;;;;;;21.80;14.70;;;;;;;-0.21;76.78;102116.41;105878;1256;59657;-69
2023/01/24 16:27:49;;;;;;;21.20;15.00;;;;;;;-0.21;76.74;102117.10;105775;1259;59563;-68
2023/01/24 16:30:19;;;;;;;21.70;13.90;;;;;;;-0.20;76.79;102116.92;105753;1257;65930;-67
2023/01/24 16:32:48;;;;;;;19.10;14.10;;;;;;;-0.21;76.79;102116.25;106277;1257;59928;-65
2023/01/24 16:35:17;;;;;;;22.10;14.20;;;;;;;-0.21;76.76;102114.00;105730;1254;65472;-65
2023/01/24 16:37:45;;;;;;;22.60;14.80;;;;;;;-0.21;76.89;102110.88;106032;1257;59666;-65
2023/01/24 16:40:16;;;;;;;20.20;13.80;;;;;;;-0.21;76.85;102109.84;106566;1254;59557;-69
2023/01/24 16:42:45;;;;;;;22.80;14.10;;;;;;;-0.21;76.85;102107.08;107067;1254;64889;-66
2023/01/24 16:45:18;;;;;;;20.10;13.90;;;;;;;-0.21;76.89;102106.55;105858;1256;59758;-76
2023/01/24 16:47:47;;;;;;;22.60;14.20;;;;;;;-0.22;77.01;102103.79;105609;1256;65670;-70
2023/01/24 16:50:16;;;;;;;19.30;13.20;;;;;;;-0.21;76.91;102106.03;106183;1256;59564;-68
2023/01/24 16:52:45;;;;;;;21.10;14.50;;;;;;;-0.21;76.93;102106.38;105993;1259;59699;-65
2023/01/24 16:55:14;;;;;;;19.60;14.10;;;;;;;-0.20;77.08;102104.46;105978;1257;64612;-65
2023/01/24 16:57:44;;;;;;;20.80;13.70;;;;;;;-0.20;77.12;102100.14;105542;1259;59740;-66
2023/01/24 17:00:13;;;;;;;20.00;13.90;;;;;;;-0.20;77.08;102094.23;105526;1258;64811;-64
2023/01/24 17:02:42;;;;;;;21.00;14.20;;;;;;;-0.19;77.12;102095.46;105581;1252;59618;-67
2023/01/24 17:05:13;;;;;;;18.40;13.70;;;;;;;-0.19;77.10;102095.46;105410;1259;59599;-65
2023/01/24 17:07:42;;;;;;;21.40;13.30;;;;;;;-0.19;77.18;102096.67;105776;1254;65980;-66
2023/01/24 17:10:10;;;;;;;19.90;13.30;;;;;;;-0.19;77.11;102098.06;105386;1256;60025;-64
2023/01/24 17:12:39;;;;;;;22.50;14.20;;;;;;;-0.19;77.18;102096.86;105744;1256;64013;-63
2023/01/24 17:15:11;;;;;;;18.40;13.70;;;;;;;-0.19;77.17;102096.85;106577;1254;59797;-63
2023/01/24 17:17:50;;;;;;;21.70;14.00;;;;;;;-0.20;77.15;102090.61;106255;1254;59615;-64
2023/01/24 17:20:21;;;;;;;21.00;14.30;;;;;;;-0.20;77.10;102091.14;105524;1256;66066;-64
2023/01/24 17:22:49;;;;;;;19.90;13.60;;;;;;;-0.20;77.15;102090.09;105736;1255;59634;-65
2023/01/24 17:25:18;;;;;;;17.10;13.70;;;;;;;-0.20;77.19;102091.13;105734;1256;65544;-66
2023/01/24 17:27:47;;;;;;;19.20;13.50;;;;;;;-0.20;77.17;102089.05;106371;1253;59564;-64
2023/01/24 17:30:16;;;;;;;21.80;13.80;;;;;;;-0.20;77.31;102088.02;105566;1254;59732;-64
2023/01/24 17:32:46;;;;;;;19.30;13.50;;;;;;;-0.20;77.34;102090.44;105749;1256;66070;-65
2023/01/24 17:35:15;;;;;;;22.50;13.50;;;;;;;-0.19;77.27;102093.04;106461;1260;59784;-63
2023/01/24 17:37:43;;;;;;;19.30;13.60;;;;;;;-0.19;77.22;102092.52;109342;1253;66798;-65
2023/01/24 17:40:11;;;;;;;18.70;13.30;;;;;;;-0.18;77.33;102095.30;109312;1257;57388;-63
2023/01/24 17:42:41;;;;;;;16.60;12.30;;;;;;;-0.18;77.27;102091.14;107562;1254;59234;-63
2023/01/24 17:45:10;;;;;;;16.60;12.60;;;;;;;-0.18;77.26;102087.51;109325;1257;66030;-65
2023/01/24 17:47:39;;;;;;;17.30;12.60;;;;;;;-0.17;77.40;102088.71;109443;1254;59570;-66
2023/01/24 17:50:07;;;;;;;16.60;12.40;;;;;;;-0.16;77.44;102088.01;109362;1254;65781;-65
2023/01/24 17:52:37;;;;;;;20.90;13.60;;;;;;;-0.15;77.44;102087.13;106187;1259;59615;-64
2023/01/24 17:55:06;;;;;;;20.30;13.30;;;;;;;-0.14;77.36;102093.87;106044;1258;59580;-64
2023/01/24 17:57:35;;;;;;;17.80;13.10;;;;;;;-0.14;77.41;102093.17;105649;1257;65796;-63
2023/01/24 18:00:04;;;;;;;19.70;13.40;;;;;;;-0.14;77.39;102090.23;105694;1259;60100;-63
2023/01/24 20:11:07;;;;;;;18.90;15.30;;;;;;;-0.76;82.82;102066.16;103143;1291;604392;-70
2023/01/24 20:13:38;;;;;;;21.30;16.00;;;;;;;-0.22;81.11;102069.33;104347;1267;182525;-68
2023/01/24 20:16:08;;;;;;;25.10;16.20;;;;;;;-0.22;80.96;102068.83;104667;1267;59360;-69
2023/01/24 20:18:36;;;;;;;22.50;15.30;;;;;;;-0.22;80.80;102069.52;104907;1268;65172;-71
2023/01/24 20:21:05;;;;;;;20.70;14.80;;;;;;;-0.24;80.66;102068.84;104912;1270;59950;-71
2023/01/24 20:23:33;;;;;;;25.30;16.00;;;;;;;-0.25;80.56;102071.80;105200;1261;64528;-69
2023/01/24 20:26:05;;;;;;;22.00;15.40;;;;;;;-0.26;80.49;102070.08;105584;1259;59351;-69
2023/01/24 20:28:35;;;;;;;27.60;16.00;;;;;;;-0.26;80.47;102071.30;105536;1258;59385;-69
2023/01/24 20:31:04;;;;;;;23.30;15.70;;;;;;;-0.26;80.34;102070.77;105466;1259;64783;-68
2023/01/24 20:33:33;;;;;;;24.10;16.10;;;;;;;-0.27;80.23;102069.58;105191;1260;59215;-70
2023/01/24 20:36:09;;;;;;;22.30;15.20;;;;;;;-0.29;80.15;102071.13;105239;1264;65629;-68
2023/01/24 20:38:38;;;;;;;21.00;15.20;;;;;;;-0.29;80.14;102069.23;105258;1261;59671;-69
2023/01/24 20:41:15;;;;;;;19.70;15.10;;;;;;;-0.30;80.03;102070.61;105256;1259;59663;-71
2023/01/24 20:43:50;;;;;;;21.70;14.80;;;;;;;-0.32;79.96;102069.06;104835;1260;66025;-71
2023/01/24 20:46:22;;;;;;;21.70;15.70;;;;;;;-0.33;79.86;102070.64;105164;1261;59704;-71
2023/01/24 20:48:55;;;;;;;20.20;14.80;;;;;;;-0.35;79.84;102075.50;105221;1264;65531;-69
2023/01/24 20:51:29;;;;;;;14.70;10.80;;;;;;;-0.34;79.81;102072.04;105246;1259;59655;-70
2023/01/24 20:53:58;;;;;;;24.50;16.20;;;;;;;-0.36;79.82;102069.46;105214;1259;59650;-71
2023/01/24 20:56:28;;;;;;;23.90;16.20;;;;;;;-0.36;79.74;102065.14;104947;1260;65678;-72
2023/01/24 20:58:57;;;;;;;23.40;15.80;;;;;;;-0.36;79.82;102063.23;105189;1264;59720;-69
2023/01/24 21:01:26;;;;;;;24.90;16.70;;;;;;;-0.36;79.76;102068.24;105128;1267;65457;-70
2023/01/24 21:03:59;;;;;;;22.60;16.40;;;;;;;-0.35;79.73;102069.63;105285;1260;59771;-70
2023/01/24 21:06:28;;;;;;;17.80;12.10;;;;;;;-0.35;79.67;102068.23;105150;1261;59850;-70
2023/01/24 21:08:57;;;;;;;22.10;16.10;;;;;;;-0.35;79.62;102065.13;105250;1263;65589;-70
2023/01/24 21:11:27;;;;;;;22.20;15.90;;;;;;;-0.35;79.58;102065.98;105225;1259;59952;-70
2023/01/24 21:13:56;;;;;;;23.40;15.90;;;;;;;-0.35;79.53;102067.02;104982;1261;65922;-70
2023/01/24 21:16:26;;;;;;;29.00;16.60;;;;;;;-0.35;79.50;102069.96;105306;1259;59734;-69
2023/01/24 21:18:56;;;;;;;23.30;16.20;;;;;;;-0.36;79.51;102068.92;105128;1259;59506;-70
2023/01/24 21:21:26;;;;;;;22.70;16.10;;;;;;;-0.36;79.45;102064.10;105189;1265;65997;-70
2023/01/24 21:23:56;;;;;;;22.60;16.50;;;;;;;-0.36;79.37;102060.28;105280;1264;60115;-70
2023/01/24 21:26:24;;;;;;;23.20;16.90;;;;;;;-0.36;79.41;102059.42;105205;1261;65361;-70
2023/01/24 21:28:53;;;;;;;23.40;16.50;;;;;;;-0.37;79.49;102056.66;105170;1260;59640;-71
2023/01/24 21:31:23;;;;;;;23.60;16.90;;;;;;;-0.36;79.48;102053.71;105201;1264;59626;-71
2023/01/24 21:33:55;;;;;;;28.30;17.00;;;;;;;-0.35;79.38;102054.56;105206;1260;66635;-70
2023/01/24 21:36:26;;;;;;;23.80;17.60;;;;;;;-0.36;79.40;102053.02;105063;1261;60079;-69
2023/01/24 21:38:54;;;;;;;25.10;17.20;;;;;;;-0.36;79.34;102052.85;105104;1261;65235;-70
2023/01/24 21:44:10;;;;;;;24.40;17.50;;;;;;;-0.37;79.31;102054.07;105015;1259;59662;-70
2023/01/24 21:46:38;;;;;;;29.80;18.40;;;;;;;-0.37;79.28;102057.53;105147;1259;66129;-70
2023/01/24 21:49:08;;;;;;;24.30;18.20;;;;;;;-0.36;79.23;102060.29;105212;1263;59850;-71
2023/01/24 21:51:39;;;;;;;25.60;19.10;;;;;;;-0.35;79.34;102062.70;104902;1267;65508;-70
2023/01/24 21:54:14;;;;;;;24.80;18.90;;;;;;;-0.35;79.21;102061.84;105056;1266;59642;-70
2023/01/24 21:59:32;;;;;;;28.90;18.00;;;;;;;-0.32;79.12;102056.08;105156;1264;66236;-70
2023/01/24 22:02:12;;;;;;;24.70;17.60;;;;;;;-0.33;79.09;102056.78;105150;1260;60046;-70
2023/01/24 22:04:45;;;;;;;26.00;17.80;;;;;;;-0.35;79.12;102055.08;104965;1261;65381;-70
2023/01/24 22:07:16;;;;;;;24.60;18.20;;;;;;;-0.33;79.07;102053.50;105214;1261;59719;-72
2023/01/24 22:09:46;;;;;;;24.10;17.50;;;;;;;-0.33;79.05;102053.85;104982;1261;59797;-69
2023/01/24 22:12:15;;;;;;;21.60;17.10;;;;;;;-0.33;79.04;102052.63;105280;1259;64424;-71
2023/01/24 22:20:44;;;;;;;23.40;16.80;;;;;;;-0.28;78.97;102056.23;102509;1294;600708;-70
2023/01/24 22:23:17;;;;;;;22.40;17.00;;;;;;;-0.30;78.99;102059.86;104802;1266;59359;-74
2023/01/24 22:25:50;;;;;;;22.80;16.10;;;;;;;-0.28;78.96;102058.33;104826;1271;59348;-68
2023/01/24 22:28:20;;;;;;;21.70;16.50;;;;;;;-0.27;78.95;102056.07;104727;1266;63886;-70
2023/01/24 22:30:49;;;;;;;26.70;17.10;;;;;;;-0.27;79.04;102049.67;104829;1270;59707;-70
2023/01/24 22:33:17;;;;;;;23.70;17.10;;;;;;;-0.27;79.00;102049.84;104725;1272;151963;-70
2023/01/24 22:35:46;;;;;;;24.10;16.80;;;;;;;-0.27;78.97;102045.86;104851;1269;59291;-70
2023/01/24 22:38:14;;;;;;;22.40;16.50;;;;;;;-0.27;78.98;102042.91;104875;1267;61752;-70
2023/01/24 22:40:43;;;;;;;21.60;16.20;;;;;;;-0.27;78.96;102045.17;104986;1268;65088;-69
2023/01/24 22:43:12;;;;;;;23.00;17.40;;;;;;;-0.28;79.01;102046.21;104878;1263;60033;-68
2023/01/24 22:45:40;;;;;;;22.60;16.80;;;;;;;-0.28;78.91;102041.02;104977;1267;64388;-71
2023/01/24 22:48:13;;;;;;;24.30;17.00;;;;;;;-0.27;78.99;102038.59;104825;1267;59606;-72
2023/01/24 22:50:42;;;;;;;;;;;;;;;-0.28;78.94;102035.64;104753;1266;59692;-72
2023/01/24 22:53:11;;;;;;;23.20;16.00;;;;;;;-0.30;78.96;102034.08;104942;1269;65424;-72
2023/01/24 22:55:39;;;;;;;25.20;16.40;;;;;;;-0.30;78.98;102030.45;104871;1268;61283;-70
2023/01/24 22:58:07;;;;;;;23.10;16.20;;;;;;;-0.30;79.01;102029.58;105613;1260;65094;-71
2023/01/24 23:00:36;;;;;;;23.20;16.50;;;;;;;-0.29;79.00;102028.72;109111;1256;57304;-73
2023/01/24 23:03:04;;;;;;;20.80;16.00;;;;;;;-0.29;79.02;102025.60;109160;1256;57401;-70
2023/01/24 23:05:32;;;;;;;24.60;16.30;;;;;;;-0.28;79.00;102024.75;109149;1256;65435;-70
2023/01/24 23:08:01;;;;;;;24.20;17.00;;;;;;;-0.29;78.92;102024.40;109166;1256;58428;-69
2023/01/24 23:22:28;;;;;;;23.00;16.50;;;;;;;-0.26;78.94;102013.98;109486;1252;64094;-72
2023/01/24 23:24:57;;;;;;;21.00;15.70;;;;;;;-0.24;78.88;102009.30;109362;1253;58183;-72
2023/01/24 23:27:26;;;;;;;22.80;16.80;;;;;;;-0.25;78.85;102006.88;109493;1252;63668;-72
2023/01/24 23:30:10;;;;;;;21.20;15.70;;;;;;;-0.25;78.84;102004.64;109303;1253;57507;-69
2023/01/24 23:32:44;;;;;;;23.50;16.40;;;;;;;-0.23;78.89;102001.84;109411;1252;57381;-70
2023/01/24 23:35:13;;;;;;;24.10;16.00;;;;;;;-0.20;78.89;102003.02;109411;1252;65382;-69
2023/01/24 23:37:41;;;;;;;23.00;16.40;;;;;;;-0.19;78.84;101999.21;109415;1252;58131;-70
2023/01/24 23:40:13;;;;;;;24.40;16.90;;;;;;;-0.18;78.76;102000.08;109429;1252;65030;-70
2023/01/24 23:42:41;;;;;;;20.70;16.00;;;;;;;-0.18;78.79;101998.52;109372;1253;57313;-70
2023/01/24 23:45:13;;;;;;;21.40;16.20;;;;;;;-0.18;78.75;101994.71;109420;1253;57228;-71
2023/01/24 23:47:41;;;;;;;21.70;16.50;;;;;;;-0.17;78.73;101994.18;109407;1253;65165;-70
2023/01/24 23:50:10;;;;;;;21.20;15.70;;;;;;;-0.16;78.75;101997.28;109443;1253;59063;-70
2023/01/24 23:52:38;;;;;;;23.20;16.20;;;;;;;-0.16;78.78;101999.02;109337;1253;64986;-70
2023/01/24 23:55:06;;;;;;;21.60;15.60;;;;;;;-0.15;78.76;102002.11;109380;1253;57436;-71
2023/01/24 23:57:35;;;;;;;22.90;15.70;;;;;;;-0.14;78.77;102001.94;109405;1253;57432;-70
